createdAt,value
2019-03-25T00:01:33.888Z,23.67
2019-03-25T00:03:59.923Z,23.87
2019-03-25T00:06:25.785Z,23.87
2019-03-25T00:09:04.510Z,23.83
2019-03-25T00:11:19.569Z,23.73
2019-03-25T00:13:45.483Z,24.77
2019-03-25T00:16:11.519Z,24.23
2019-03-25T00:18:37.512Z,24.47
2019-03-25T00:21:03.559Z,23.70
2019-03-25T00:23:29.893Z,24.87
2019-03-25T00:25:56.020Z,24.90
2019-03-25T00:28:21.951Z,22.97
2019-03-25T00:30:47.897Z,23.23
2019-03-25T00:33:13.892Z,23.27
2019-03-25T00:35:39.784Z,23.33
2019-03-25T00:38:05.653Z,24.43
2019-03-25T00:40:31.573Z,24.60
2019-03-25T00:42:57.387Z,24.07
2019-03-25T00:45:23.216Z,24.00
2019-03-25T00:47:49.097Z,24.50
2019-03-25T00:50:15.033Z,23.77
2019-03-25T00:52:40.896Z,23.67
2019-03-25T00:55:06.769Z,24.87
2019-03-25T00:57:32.596Z,23.07
2019-03-25T00:59:58.544Z,24.73
2019-03-25T01:02:28.385Z,23.17
2019-03-25T01:04:54.249Z,23.60
2019-03-25T01:07:20.168Z,23.00
2019-03-25T01:09:46.063Z,22.13
2019-03-25T01:12:11.928Z,22.70
2019-03-25T01:14:37.753Z,23.17
2019-03-25T01:17:03.896Z,23.17
2019-03-25T01:19:29.842Z,22.57
2019-03-25T01:21:55.801Z,23.27
2019-03-25T01:24:21.744Z,23.17
2019-03-25T01:26:47.760Z,23.43
2019-03-25T01:29:13.750Z,23.30
2019-03-25T01:31:39.586Z,22.73
2019-03-25T01:34:05.490Z,22.00
2019-03-25T01:36:31.358Z,21.47
2019-03-25T01:38:57.185Z,22.43
2019-03-25T01:41:23.081Z,22.00
2019-03-25T01:43:48.932Z,22.20
2019-03-25T01:46:14.847Z,21.80
2019-03-25T01:48:40.858Z,23.00
2019-03-25T01:51:06.666Z,22.57
2019-03-25T01:53:32.506Z,22.40
2019-03-25T01:55:58.447Z,22.40
2019-03-25T01:58:24.384Z,21.47
2019-03-25T02:00:50.230Z,22.00
2019-03-25T02:03:16.114Z,22.17
2019-03-25T02:05:41.935Z,22.47
2019-03-25T02:08:07.897Z,21.77
2019-03-25T02:10:33.852Z,21.20
2019-03-25T02:12:59.780Z,22.20
2019-03-25T02:15:25.605Z,21.60
2019-03-25T02:17:51.472Z,22.10
2019-03-25T02:20:25.819Z,22.40
2019-03-25T02:22:45.513Z,21.70
2019-03-25T02:25:11.327Z,21.87
2019-03-25T02:27:37.307Z,21.33
2019-03-25T02:30:05.438Z,20.80
2019-03-25T02:32:31.322Z,21.60
2019-03-25T02:34:57.195Z,22.27
2019-03-25T02:37:23.095Z,21.07
2019-03-25T02:39:48.998Z,21.67
2019-03-25T02:42:14.820Z,21.90
2019-03-25T02:44:40.766Z,20.37
2019-03-25T02:47:06.756Z,21.50
2019-03-25T02:49:32.699Z,20.80
2019-03-25T02:51:58.596Z,21.43
2019-03-25T02:54:24.437Z,21.87
2019-03-25T02:56:50.293Z,21.07
2019-03-25T02:59:16.379Z,21.37
2019-03-25T03:01:42.214Z,22.07
2019-03-25T03:04:08.049Z,21.77
2019-03-25T03:06:33.914Z,21.50
2019-03-25T03:08:59.739Z,21.00
2019-03-25T03:11:25.598Z,20.40
2019-03-25T03:13:51.573Z,20.77
2019-03-25T03:16:17.390Z,21.03
2019-03-25T03:18:43.239Z,20.13
2019-03-25T03:21:09.235Z,21.33
2019-03-25T03:23:35.068Z,21.67
2019-03-25T03:26:00.900Z,21.30
2019-03-25T03:28:26.852Z,21.30
2019-03-25T03:30:52.777Z,21.27
2019-03-25T03:33:18.712Z,21.17
2019-03-25T03:35:46.549Z,20.93
2019-03-25T03:38:12.235Z,20.40
2019-03-25T03:40:38.136Z,20.93
2019-03-25T03:43:04.196Z,20.83
2019-03-25T03:45:30.052Z,20.20
2019-03-25T03:47:56.129Z,20.63
2019-03-25T03:50:23.860Z,20.20
2019-03-25T03:52:49.810Z,20.10
2019-03-25T03:55:15.778Z,20.73
2019-03-25T03:57:41.623Z,20.53
2019-03-25T04:00:11.266Z,20.63
2019-03-25T04:02:37.191Z,21.37
2019-03-25T04:05:03.437Z,20.50
2019-03-25T04:07:29.256Z,21.60
2019-03-25T04:09:55.149Z,20.57
2019-03-25T04:12:21.194Z,19.57
2019-03-25T04:14:47.129Z,20.33
2019-03-25T04:17:13.130Z,20.37
2019-03-25T04:19:38.972Z,21.60
2019-03-25T04:22:04.910Z,19.93
2019-03-25T04:24:30.895Z,21.00
2019-03-25T04:26:56.719Z,20.60
2019-03-25T04:29:22.653Z,20.40
2019-03-25T04:31:48.856Z,18.83
2019-03-25T04:34:14.679Z,19.97
2019-03-25T04:36:40.649Z,20.67
2019-03-25T04:39:07.067Z,20.50
2019-03-25T04:41:32.982Z,20.90
2019-03-25T04:43:58.809Z,21.03
2019-03-25T04:46:24.827Z,19.33
2019-03-25T04:48:50.727Z,19.70
2019-03-25T04:51:16.666Z,19.90
2019-03-25T04:53:42.499Z,21.13
2019-03-25T04:56:08.489Z,20.17
2019-03-25T04:58:34.333Z,19.87
2019-03-25T05:01:00.160Z,20.23
2019-03-25T05:03:26.024Z,20.53
2019-03-25T05:05:51.955Z,20.43
2019-03-25T05:08:17.803Z,20.57
2019-03-25T05:10:43.748Z,19.23
2019-03-25T05:13:09.698Z,19.63
2019-03-25T05:15:35.539Z,19.10
2019-03-25T05:18:01.476Z,20.13
2019-03-25T05:20:27.571Z,19.33
2019-03-25T05:22:53.371Z,20.13
2019-03-25T05:25:19.334Z,19.83
2019-03-25T05:27:45.423Z,18.93
2019-03-25T05:30:11.552Z,19.80
2019-03-25T05:32:37.384Z,20.63
2019-03-25T05:35:05.373Z,19.77
2019-03-25T05:37:31.197Z,19.80
2019-03-25T05:39:57.185Z,20.27
2019-03-25T05:42:23.044Z,19.80
2019-03-25T05:44:49.001Z,20.77
2019-03-25T05:47:14.918Z,19.50
2019-03-25T05:49:40.850Z,19.67
2019-03-25T05:52:06.673Z,20.20
2019-03-25T05:54:32.568Z,20.37
2019-03-25T05:57:02.655Z,19.27
2019-03-25T05:59:26.197Z,20.37
2019-03-25T06:01:52.052Z,20.40
2019-03-25T06:04:17.961Z,20.43
2019-03-25T06:06:43.794Z,20.83
2019-03-25T06:09:09.746Z,19.97
2019-03-25T06:11:35.755Z,20.43
2019-03-25T06:14:01.700Z,20.23
2019-03-25T06:16:27.646Z,20.13
2019-03-25T06:18:53.719Z,20.20
2019-03-25T06:21:19.548Z,19.83
2019-03-25T06:23:45.395Z,20.47
2019-03-25T06:26:11.296Z,20.47
2019-03-25T06:28:37.117Z,20.53
2019-03-25T06:31:03.175Z,19.27
2019-03-25T06:33:29.055Z,20.33
2019-03-25T06:35:54.884Z,19.80
2019-03-25T06:38:20.715Z,19.70
2019-03-25T06:40:49.126Z,20.10
2019-03-25T06:43:14.445Z,20.00
2019-03-25T06:45:40.282Z,20.13
2019-03-25T06:48:06.165Z,19.90
2019-03-25T06:50:32.006Z,20.87
2019-03-25T06:52:57.872Z,20.30
2019-03-25T06:55:23.805Z,20.67
2019-03-25T06:57:49.846Z,21.13
2019-03-25T07:00:16.477Z,20.83
2019-03-25T07:02:42.407Z,19.73
2019-03-25T07:05:09.639Z,20.10
2019-03-25T07:07:35.636Z,21.13
2019-03-25T07:10:01.643Z,20.93
2019-03-25T07:12:27.774Z,20.23
2019-03-25T07:14:53.652Z,21.43
2019-03-25T07:17:19.711Z,20.53
2019-03-25T07:19:45.578Z,20.90
2019-03-25T07:22:11.390Z,21.67
2019-03-25T07:24:37.275Z,21.83
2019-03-25T07:27:03.352Z,21.27
2019-03-25T07:29:29.196Z,21.70
2019-03-25T07:31:55.060Z,20.77
2019-03-25T07:34:21.039Z,21.37
2019-03-25T07:36:46.897Z,21.03
2019-03-25T07:39:12.828Z,23.30
2019-03-25T07:41:38.756Z,21.87
2019-03-25T07:44:04.952Z,22.70
2019-03-25T07:46:30.867Z,26.53
2019-03-25T07:48:56.720Z,22.97
2019-03-25T07:51:22.723Z,24.70
2019-03-25T07:53:50.961Z,25.30
2019-03-25T07:56:16.393Z,28.37
2019-03-25T07:58:42.353Z,25.47
2019-03-25T08:01:08.330Z,25.67
2019-03-25T08:03:34.164Z,25.37
2019-03-25T08:06:00.225Z,25.40
2019-03-25T08:08:26.138Z,25.13
2019-03-25T08:10:52.075Z,25.83
2019-03-25T08:13:18.014Z,24.30
2019-03-25T08:15:44.066Z,26.33
2019-03-25T08:18:09.930Z,25.13
2019-03-25T08:20:35.887Z,25.30
2019-03-25T08:23:01.813Z,23.70
2019-03-25T08:25:27.690Z,23.53
2019-03-25T08:27:59.859Z,22.63
2019-03-25T08:30:21.445Z,23.27
2019-03-25T08:32:47.390Z,22.30
2019-03-25T08:35:13.408Z,21.80
2019-03-25T08:37:39.238Z,22.10
2019-03-25T08:40:05.842Z,21.73
2019-03-25T08:42:31.647Z,21.13
2019-03-25T08:44:57.596Z,20.67
2019-03-25T08:47:23.516Z,20.83
2019-03-25T08:49:49.386Z,20.63
2019-03-25T08:52:15.264Z,18.77
2019-03-25T08:54:41.083Z,17.77
2019-03-25T08:57:06.958Z,18.90
2019-03-25T08:59:32.805Z,17.73
2019-03-25T09:01:58.717Z,18.37
2019-03-25T09:04:24.641Z,18.43
2019-03-25T09:06:50.468Z,18.13
2019-03-25T09:09:16.390Z,18.70
2019-03-25T09:11:42.384Z,18.00
2019-03-25T09:14:08.338Z,17.90
2019-03-25T09:16:34.161Z,17.60
2019-03-25T09:18:59.994Z,16.53
2019-03-25T09:21:25.821Z,16.77
2019-03-25T09:23:51.916Z,17.03
2019-03-25T09:26:17.767Z,17.80
2019-03-25T09:28:43.599Z,17.90
2019-03-25T09:31:11.742Z,18.07
2019-03-25T09:33:37.955Z,17.40
2019-03-25T09:36:04.177Z,16.63
2019-03-25T09:38:30.078Z,17.03
2019-03-25T09:40:55.910Z,16.30
2019-03-25T09:43:21.762Z,17.27
2019-03-25T09:45:47.852Z,17.37
2019-03-25T09:48:13.786Z,16.47
2019-03-25T09:50:43.248Z,17.23
2019-03-25T09:53:09.488Z,16.53
2019-03-25T09:55:35.370Z,16.07
2019-03-25T09:58:01.326Z,15.93
2019-03-25T10:00:31.314Z,15.53
2019-03-25T10:02:57.553Z,16.40
2019-03-25T10:05:23.396Z,16.10
2019-03-25T10:07:49.239Z,16.03
2019-03-25T10:10:15.305Z,15.43
2019-03-25T10:12:41.226Z,14.60
2019-03-25T10:15:08.368Z,15.37
2019-03-25T10:17:34.225Z,15.43
2019-03-25T10:20:00.432Z,15.87
2019-03-25T10:22:26.286Z,16.67
2019-03-25T10:24:52.173Z,15.53
2019-03-25T10:27:18.117Z,14.13
2019-03-25T10:29:44.070Z,15.80
2019-03-25T10:32:10.232Z,14.30
2019-03-25T10:34:36.271Z,15.27
2019-03-25T10:37:02.228Z,15.40
2019-03-25T10:39:28.036Z,15.50
2019-03-25T10:41:53.881Z,15.73
2019-03-25T10:44:19.863Z,15.53
2019-03-25T10:46:45.798Z,15.30
2019-03-25T10:49:11.676Z,16.67
2019-03-25T10:51:37.603Z,15.93
2019-03-25T10:54:03.543Z,17.33
2019-03-25T10:56:29.386Z,15.97
2019-03-25T10:58:58.284Z,15.30
2019-03-25T11:01:23.199Z,16.23
2019-03-25T11:03:49.117Z,16.60
2019-03-25T11:06:14.964Z,18.63
2019-03-25T11:08:41.001Z,17.73
2019-03-25T11:11:06.912Z,17.47
2019-03-25T11:13:32.957Z,17.77
2019-03-25T11:15:58.871Z,17.53
2019-03-25T11:18:24.879Z,17.50
2019-03-25T11:20:50.776Z,16.30
2019-03-25T11:23:16.601Z,19.17
2019-03-25T11:25:42.489Z,19.20
2019-03-25T11:28:08.429Z,19.73
2019-03-25T11:30:49.693Z,19.17
2019-03-25T11:33:15.530Z,19.70
2019-03-25T11:35:41.366Z,19.87
2019-03-25T11:38:07.319Z,19.17
2019-03-25T11:40:33.233Z,18.90
2019-03-25T11:42:59.404Z,19.97
2019-03-25T11:45:25.430Z,19.37
2019-03-25T11:47:51.300Z,20.73
2019-03-25T11:50:17.385Z,19.93
2019-03-25T11:52:43.396Z,19.93
2019-03-25T11:55:09.499Z,20.50
2019-03-25T11:57:35.535Z,20.53
2019-03-25T12:00:01.695Z,20.93
2019-03-25T12:02:27.624Z,21.20
2019-03-25T12:04:53.579Z,22.70
2019-03-25T12:07:19.502Z,20.33
2019-03-25T12:09:45.570Z,22.87
2019-03-25T12:12:11.479Z,22.13
2019-03-25T12:14:37.374Z,22.23
2019-03-25T12:17:03.403Z,22.67
2019-03-25T12:19:29.268Z,22.97
2019-03-25T12:21:55.270Z,22.37
2019-03-25T12:24:21.200Z,21.63
2019-03-25T12:26:47.097Z,22.30
2019-03-25T12:29:12.913Z,22.00
2019-03-25T12:31:38.996Z,21.93
2019-03-25T12:34:05.066Z,21.33
2019-03-25T12:36:31.116Z,21.50
2019-03-25T12:38:56.953Z,21.10
2019-03-25T12:41:22.940Z,20.00
2019-03-25T12:43:48.875Z,19.10
2019-03-25T12:46:14.730Z,18.70
2019-03-25T12:48:40.707Z,18.50
2019-03-25T12:51:06.758Z,18.23
2019-03-25T12:53:32.700Z,17.80
2019-03-25T12:55:58.754Z,16.97
2019-03-25T12:58:24.593Z,17.03
2019-03-25T13:00:50.561Z,17.67
2019-03-25T13:03:16.530Z,16.93
2019-03-25T13:05:42.546Z,17.17
2019-03-25T13:08:08.478Z,17.73
2019-03-25T13:10:34.548Z,16.33
2019-03-25T13:13:00.461Z,15.60
2019-03-25T13:15:26.397Z,15.75
2019-03-25T13:17:52.273Z,15.95
2019-03-25T13:20:18.212Z,15.75
2019-03-25T13:22:44.063Z,14.35
2019-03-25T13:25:09.982Z,15.13
2019-03-25T13:27:35.947Z,16.17
2019-03-25T13:30:04.270Z,16.17
2019-03-25T13:32:30.162Z,15.45
2019-03-25T13:34:56.016Z,16.07
2019-03-25T13:37:21.844Z,15.48
2019-03-25T13:39:47.859Z,16.75
2019-03-25T13:42:13.703Z,16.23
2019-03-25T13:44:40.249Z,14.90
2019-03-25T13:47:06.128Z,15.53
2019-03-25T13:49:31.950Z,14.25
2019-03-25T13:51:57.784Z,15.00
2019-03-25T13:54:23.792Z,14.55
2019-03-25T13:56:49.750Z,14.75
2019-03-25T13:59:15.615Z,14.73
2019-03-25T14:01:41.555Z,15.03
2019-03-25T14:04:07.500Z,16.20
2019-03-25T14:06:33.461Z,15.98
2019-03-25T14:08:59.305Z,16.52
2019-03-25T14:11:25.419Z,16.05
2019-03-25T14:13:51.281Z,17.62
2019-03-25T14:16:17.171Z,16.65
2019-03-25T14:18:43.046Z,16.93
2019-03-25T14:21:09.114Z,15.03
2019-03-25T14:23:34.946Z,16.93
2019-03-25T14:26:01.198Z,15.70
2019-03-25T14:28:27.158Z,16.90
2019-03-25T14:30:53.057Z,16.55
2019-03-25T14:33:18.915Z,17.02
2019-03-25T14:35:44.823Z,16.25
2019-03-25T14:38:10.786Z,15.88
2019-03-25T14:40:36.855Z,15.23
2019-03-25T14:43:03.270Z,15.10
2019-03-25T14:45:29.256Z,15.48
2019-03-25T14:47:55.337Z,15.43
2019-03-25T14:50:21.324Z,14.80
2019-03-25T14:52:47.291Z,15.35
2019-03-25T14:55:17.223Z,14.18
2019-03-25T14:57:43.112Z,12.23
2019-03-25T15:00:10.374Z,12.03
2019-03-25T15:02:36.283Z,11.43
2019-03-25T15:05:04.484Z,12.13
2019-03-25T15:07:30.449Z,12.90
2019-03-25T15:09:56.433Z,12.60
2019-03-25T15:12:22.331Z,10.75
2019-03-25T15:14:48.263Z,10.55
2019-03-25T15:17:14.263Z,10.00
2019-03-25T15:19:40.137Z,9.20
2019-03-25T15:22:06.070Z,8.93
2019-03-25T15:24:32.105Z,7.92
2019-03-25T15:26:58.037Z,7.90
2019-03-25T15:29:23.857Z,7.60
2019-03-25T15:31:49.749Z,7.92
2019-03-25T15:34:15.611Z,8.08
2019-03-25T15:36:41.441Z,7.78
2019-03-25T15:39:07.685Z,8.33
2019-03-25T15:41:33.524Z,8.20
2019-03-25T15:43:59.477Z,5.75
2019-03-25T15:46:25.378Z,5.40
2019-03-25T15:48:51.312Z,3.77
2019-03-25T15:51:17.143Z,4.10
2019-03-25T15:53:43.037Z,3.30
2019-03-25T15:56:12.410Z,3.67
2019-03-25T15:58:38.290Z,3.13
2019-03-25T16:01:04.238Z,3.40
2019-03-25T16:03:30.123Z,2.73
2019-03-25T16:05:56.247Z,3.37
2019-03-25T16:08:22.075Z,2.70
2019-03-25T16:10:48.011Z,3.10
2019-03-25T16:13:13.894Z,2.83
2019-03-25T16:15:41.745Z,3.00
2019-03-25T16:18:08.159Z,2.80
2019-03-25T16:20:34.221Z,3.03
2019-03-25T16:23:00.174Z,2.93
2019-03-25T16:25:26.500Z,2.73
2019-03-25T16:27:52.323Z,2.60
2019-03-25T16:30:18.273Z,2.37
2019-03-25T16:32:44.122Z,2.93
2019-03-25T16:35:11.565Z,2.77
2019-03-25T16:37:37.545Z,2.80
2019-03-25T16:40:05.574Z,3.00
2019-03-25T16:42:31.563Z,2.53
2019-03-25T16:44:57.612Z,2.53
2019-03-25T16:47:23.580Z,2.70
2019-03-25T16:49:49.381Z,3.00
2019-03-25T16:52:15.555Z,2.17
2019-03-25T16:54:41.381Z,2.37
2019-03-25T16:57:07.511Z,2.27
2019-03-25T16:59:33.482Z,2.80
2019-03-25T17:01:59.323Z,2.70
2019-03-25T17:04:25.302Z,3.20
2019-03-25T17:06:51.342Z,3.80
2019-03-25T17:09:17.167Z,3.67
2019-03-25T17:11:42.998Z,4.33
2019-03-25T17:14:09.028Z,3.40
2019-03-25T17:16:35.103Z,4.03
2019-03-25T17:19:02.125Z,2.90
2019-03-25T17:21:28.121Z,3.83
2019-03-25T17:23:53.985Z,3.50
2019-03-25T17:26:19.967Z,4.43
2019-03-25T17:28:46.918Z,4.57
2019-03-25T17:31:21.033Z,4.43
2019-03-25T17:33:40.698Z,4.33
2019-03-25T17:36:06.559Z,4.30
2019-03-25T17:38:32.553Z,4.20
2019-03-25T17:40:58.395Z,4.07
2019-03-25T17:43:24.224Z,4.27
2019-03-25T17:45:50.178Z,4.17
2019-03-25T17:48:16.021Z,3.50
2019-03-25T17:50:41.966Z,3.17
2019-03-25T17:53:07.905Z,2.97
2019-03-25T17:55:33.932Z,2.40
2019-03-25T17:57:59.958Z,3.03
2019-03-25T18:00:48.114Z,3.50
2019-03-25T18:03:15.347Z,2.73
2019-03-25T18:05:41.238Z,2.60
2019-03-25T18:08:07.095Z,2.50
2019-03-25T18:10:33.059Z,2.63
2019-03-25T18:12:59.014Z,3.03
2019-03-25T18:15:25.007Z,2.50
2019-03-25T18:17:50.940Z,2.60
2019-03-25T18:20:36.755Z,2.20
2019-03-25T18:23:02.730Z,2.60
2019-03-25T18:25:28.657Z,2.50
2019-03-25T18:27:54.544Z,2.40
2019-03-25T18:30:29.903Z,2.20
2019-03-25T18:32:55.868Z,2.17
2019-03-25T18:35:22.319Z,3.00
2019-03-25T18:37:48.167Z,2.50
2019-03-25T18:40:14.025Z,2.10
2019-03-25T18:42:40.121Z,2.40
2019-03-25T18:45:06.414Z,2.63
2019-03-25T18:47:32.480Z,2.40
2019-03-25T18:49:58.583Z,2.13
2019-03-25T18:52:24.464Z,2.43
2019-03-25T18:54:50.545Z,2.50
2019-03-25T18:57:16.516Z,2.20
2019-03-25T18:59:42.566Z,2.90
2019-03-25T19:02:08.622Z,2.60
2019-03-25T19:04:34.538Z,2.30
2019-03-25T19:07:01.263Z,2.20
2019-03-25T19:09:27.685Z,2.20
2019-03-25T19:11:53.524Z,2.30
2019-03-25T19:14:19.351Z,2.10
2019-03-25T19:16:45.379Z,2.53
2019-03-25T19:19:11.185Z,2.20
2019-03-25T19:21:37.361Z,2.17
2019-03-25T19:24:03.429Z,2.77
2019-03-25T19:26:29.281Z,2.10
2019-03-25T19:28:55.109Z,2.40
2019-03-25T19:31:21.081Z,2.70
2019-03-25T19:33:46.897Z,2.10
2019-03-25T19:36:12.913Z,2.20
2019-03-25T19:38:38.743Z,2.20
2019-03-25T19:41:04.584Z,2.10
2019-03-25T19:43:30.453Z,1.90
2019-03-25T19:45:56.276Z,2.30
2019-03-25T19:48:22.211Z,2.17
2019-03-25T19:50:48.265Z,1.97
2019-03-25T19:53:18.927Z,1.90
2019-03-25T19:55:42.199Z,1.40
2019-03-25T19:58:08.157Z,1.70
2019-03-25T20:00:37.949Z,1.90
2019-03-25T20:03:04.713Z,2.10
2019-03-25T20:05:30.706Z,1.60
2019-03-25T20:07:57.704Z,1.70
2019-03-25T20:10:34.482Z,1.97
2019-03-25T20:13:00.954Z,1.70
2019-03-25T20:15:27.256Z,1.47
2019-03-25T20:17:53.064Z,1.80
2019-03-25T20:20:18.973Z,1.60
2019-03-25T20:22:44.885Z,1.50
2019-03-25T20:25:10.931Z,2.40
2019-03-25T20:27:36.795Z,1.90
2019-03-25T20:30:06.460Z,1.50
2019-03-25T20:32:32.466Z,1.40
2019-03-25T20:34:58.373Z,1.40
2019-03-25T20:37:24.216Z,1.40
2019-03-25T20:39:50.085Z,1.57
2019-03-25T20:42:15.955Z,1.50
2019-03-25T20:44:41.777Z,1.50
2019-03-25T20:47:07.616Z,1.53
2019-03-25T20:49:33.605Z,2.20
2019-03-25T20:51:59.635Z,2.20
2019-03-25T20:54:25.610Z,1.60
2019-03-25T20:56:51.461Z,1.80
2019-03-25T20:59:18.247Z,1.70
2019-03-25T21:01:44.315Z,2.23
2019-03-25T21:04:10.238Z,1.77
2019-03-25T21:06:36.514Z,1.73
2019-03-25T21:09:04.599Z,1.70
2019-03-25T21:11:30.639Z,1.60
2019-03-25T21:13:56.922Z,1.80
2019-03-25T21:16:22.862Z,1.87
2019-03-25T21:18:48.841Z,1.60
2019-03-25T21:21:14.831Z,1.40
2019-03-25T21:23:40.706Z,1.73
2019-03-25T21:26:06.785Z,1.73
2019-03-25T21:28:32.817Z,2.57
2019-03-25T21:30:58.682Z,1.77
2019-03-25T21:33:24.537Z,1.70
2019-03-25T21:35:50.653Z,1.60
2019-03-25T21:38:16.673Z,1.50
2019-03-25T21:40:42.948Z,1.63
2019-03-25T21:43:09.104Z,1.60
2019-03-25T21:45:35.020Z,1.60
2019-03-25T21:48:00.979Z,1.43
2019-03-25T21:50:26.884Z,6.73
2019-03-25T21:52:53.097Z,1.70
2019-03-25T21:55:19.046Z,2.53
2019-03-25T21:57:45.200Z,2.37
2019-03-25T22:00:11.590Z,1.67
2019-03-25T22:02:37.426Z,2.00
2019-03-25T22:05:05.497Z,1.83
2019-03-25T22:07:31.500Z,1.63
2019-03-25T22:09:57.566Z,1.70
2019-03-25T22:12:23.578Z,1.67
2019-03-25T22:14:49.532Z,1.60
2019-03-25T22:17:15.385Z,1.63
2019-03-25T22:19:41.238Z,1.70
2019-03-25T22:22:07.213Z,1.60
2019-03-25T22:24:33.081Z,1.50
2019-03-25T22:26:58.903Z,1.47
2019-03-25T22:29:24.832Z,1.40
2019-03-25T22:31:51.053Z,1.40
2019-03-25T22:34:16.947Z,1.40
2019-03-25T22:36:42.782Z,1.40
2019-03-25T22:39:08.893Z,1.50
2019-03-25T22:41:35.145Z,1.50
2019-03-25T22:44:01.351Z,1.30
2019-03-25T22:46:27.441Z,1.30
2019-03-25T22:48:53.305Z,1.50
2019-03-25T22:51:19.147Z,1.37
2019-03-25T22:53:45.068Z,1.30
2019-03-25T22:56:11.041Z,1.30
2019-03-25T22:58:37.208Z,1.40
2019-03-25T23:01:03.715Z,1.40
2019-03-25T23:03:39.133Z,1.50
2019-03-25T23:05:57.660Z,1.30
2019-03-25T23:08:23.546Z,1.30
2019-03-25T23:10:49.729Z,1.40
2019-03-25T23:13:15.789Z,1.37
2019-03-25T23:15:41.774Z,1.43
2019-03-25T23:18:07.844Z,1.37
2019-03-25T23:20:33.683Z,1.50
2019-03-25T23:22:59.729Z,1.37
2019-03-25T23:25:25.564Z,1.20
2019-03-25T23:27:51.473Z,1.30
2019-03-25T23:30:17.593Z,1.40
2019-03-25T23:32:43.629Z,1.20
2019-03-25T23:35:09.661Z,1.50
2019-03-25T23:37:35.777Z,1.57
2019-03-25T23:40:04.234Z,1.40
2019-03-25T23:42:30.089Z,1.60
2019-03-25T23:44:56.002Z,1.40
2019-03-25T23:47:22.067Z,1.40
2019-03-25T23:49:48.010Z,1.30
2019-03-25T23:52:13.923Z,1.30
2019-03-25T23:54:39.982Z,1.40
2019-03-25T23:57:05.953Z,1.37
2019-03-25T23:59:32.013Z,1.33
